Dobrodošli na spletni strani vremenske postaje Senovo. Vse informacije so informativnega značaja, saj vremenska postaja ni del državne mreže meteoroloških postaj. AKTUALNIH OBVESTIL NI.


Sneg/Led Od: 23-02-2018 00:00 Do: 23:59 Opozorilo za: Sneg/Led Stopnja: Rumena info button

Pogled proti Armezu več informacij Pogled proti Armezu


Lisca več informacij Lisca


Radar strel več informacij blitzortung!


opozorilo za sneg/led več informacij rain snow radar


Obiščite še:

Template documentation
and downloads

And another site



Weather Underground, zgodovina - Tekstovno

Dnevni povzetek za Januar 22, 2018 Enote:  Metrično    Angleško   Obe
« Predhodni Dan
Naslednji Dan »
Dnevni Tedenski Mesečni Letni Po meri
  Višja: Nižja: Povprečje:
Temperatura: -17.8 °C -19.5 °C -17.6 °C
Točka rosišča: -17.8 °C -20.5 °C -19.4 °C
Vlažnost: Humidity % 56 % 80 %
Hitrost vetra: 0 km/h 0 km/h 1.6 km/h
Sunki vetra: 0 km/h - -
Veter:- - WSW
Zračni tlak: 0 hPa 34198.6 hPa -
Padavine: 0 mm    
Historical Graphs
 
 
Tabelarni podarki za Januar 22, 2018
Čas Temperatura Točka rosišča Zračni tlak Veter Hitrost vetra Sunki vetra Vlažnost Intenziteta padavin (urna)
-17.8 °C -17.8 °C 0 hPa Calm     Humidity % 0 mm
00:09 -17.9 °C -19.1 °C 34405.1 hPa Calm     86 % 0 mm
00:14 -17.9 °C -19.1 °C 34405.1 hPa Calm     86 % 0 mm
00:19 -17.9 °C -19.1 °C 34405.1 hPa Calm     86 % 0 mm
00:24 -17.9 °C -19.1 °C 34405.1 hPa Calm     86 % 0 mm
00:29 -18 °C -19.1 °C 34405.1 hPa Calm     86 % 0 mm
00:34 -18.1 °C -19.2 °C 34405.1 hPa Calm     86 % 0 mm
00:39 -18.1 °C -19.2 °C 34405.1 hPa Calm     86 % 0 mm
00:44 -18.1 °C -19.2 °C 34405.1 hPa Calm     87 % 0 mm
00:49 -18.2 °C -19.2 °C 34405.1 hPa Calm     87 % 0 mm
00:54 -18.2 °C -19.3 °C 34405.1 hPa Calm     87 % 0 mm
00:59 -18.3 °C -19.3 °C 34405.1 hPa Calm     87 % 0 mm
01:04 -18.3 °C -19.4 °C 34405.1 hPa Calm     87 % 0 mm
01:09 -18.3 °C -19.4 °C 34405.1 hPa Calm     87 % 0 mm
01:14 -18.4 °C -19.4 °C 34405.1 hPa Calm     87 % 0 mm
01:19 -18.4 °C -19.5 °C 34405.1 hPa Calm     87 % 0 mm
01:24 -18.4 °C -19.5 °C 34405.1 hPa Calm     87 % 0 mm
01:29 -18.5 °C -19.6 °C 34405.1 hPa Calm     87 % 0 mm
01:34 -18.6 °C -19.6 °C 34405.1 hPa Calm     87 % 0 mm
01:39 -18.6 °C -19.6 °C 34405.1 hPa Calm     87 % 0 mm
01:44 -18.6 °C -19.7 °C 34405.1 hPa Calm     87 % 0 mm
01:49 -18.7 °C -19.7 °C 34405.1 hPa Calm     87 % 0 mm
01:54 -18.7 °C -19.8 °C 34405.1 hPa Calm     87 % 0 mm
01:59 -18.7 °C -19.8 °C 34405.1 hPa SW 0.5 km/h 6.4 km/h 87 % 0 mm
02:04 -18.8 °C -19.8 °C 34405.1 hPa SW 1.6 km/h 6.4 km/h 87 % 0 mm
02:09 -18.8 °C -19.7 °C 34405.1 hPa WSW 1.8 km/h 6.4 km/h 88 % 0 mm
02:14 -18.8 °C -19.8 °C 34405.1 hPa NW 0.5 km/h 4.2 km/h 88 % 0 mm
02:19 -18.8 °C -19.8 °C 34405.1 hPa Calm     88 % 0 mm
02:24 -18.9 °C -19.8 °C 34405.1 hPa Calm     88 % 0 mm
02:29 -18.9 °C -19.9 °C 34405.1 hPa Calm     88 % 0 mm
02:34 -18.9 °C -19.9 °C 34405.1 hPa SW 1.3 km/h 5.6 km/h 88 % 0 mm
02:39 -19.1 °C -20 °C 34405.1 hPa SW 1.8 km/h 5.6 km/h 88 % 0 mm
02:44 -19.1 °C -20 °C 34405.1 hPa WSW 1.8 km/h 5.1 km/h 88 % 0 mm
02:49 -19.1 °C -20 °C 34405.1 hPa WNW 1.8 km/h 5.1 km/h 88 % 0 mm
02:54 -19.1 °C -20.1 °C 34405.1 hPa NW 0.8 km/h 4.2 km/h 88 % 0 mm
02:59 -19.2 °C -20.1 °C 34405.1 hPa Calm     88 % 0 mm
03:04 -19.2 °C -20.1 °C 34405.1 hPa Calm     88 % 0 mm
03:09 -19.2 °C -20.2 °C 34405.1 hPa Calm     88 % 0 mm
03:14 -19.2 °C -20.2 °C 34405.1 hPa Calm     88 % 0 mm
03:19 -19.2 °C -20.2 °C 34405.1 hPa Calm     88 % 0 mm
03:24 -19.3 °C -20.2 °C 34405.1 hPa Calm     88 % 0 mm
03:29 -19.3 °C -20.3 °C 34371.3 hPa Calm     88 % 0 mm
03:34 -19.3 °C -20.3 °C 34371.3 hPa Calm     88 % 0 mm
03:39 -19.3 °C -20.3 °C 34371.3 hPa Calm     88 % 0 mm
03:44 -19.4 °C -20.3 °C 34405.1 hPa Calm     88 % 0 mm
03:54 -19.4 °C -20.3 °C 34405.1 hPa Calm     89 % 0 mm
03:59 -19.4 °C -20.3 °C 34371.3 hPa Calm     89 % 0 mm
04:04 -19.4 °C -20.3 °C 34371.3 hPa Calm     89 % 0 mm
04:09 -19.5 °C -20.4 °C 34371.3 hPa NW 1.3 km/h 5.1 km/h 89 % 0 mm
04:14 -19.4 °C -20.3 °C 34371.3 hPa NW 2.3 km/h 5.6 km/h 89 % 0 mm
04:19 -19.4 °C -20.3 °C 34371.3 hPa NW 1.6 km/h 6.4 km/h 89 % 0 mm
04:24 -19.4 °C -20.3 °C 34371.3 hPa NW 1.3 km/h 6.4 km/h 89 % 0 mm
04:29 -19.4 °C -20.3 °C 34371.3 hPa NW 0.8 km/h 5.6 km/h 89 % 0 mm
04:39 -19.4 °C -20.3 °C 34371.3 hPa Calm     89 % 0 mm
04:44 -19.4 °C -20.3 °C 34371.3 hPa Calm   6.4 km/h 89 % 0 mm
04:49 -19.4 °C -20.3 °C 34371.3 hPa NNW 1.6 km/h 6.9 km/h 89 % 0 mm
04:54 -19.4 °C -20.2 °C 34371.3 hPa North 1.6 km/h 6.9 km/h 89 % 0 mm
05:04 -19.2 °C -20.1 °C 34371.3 hPa South 3.9 km/h 7.6 km/h 89 % 0 mm
05:09 -19.2 °C -19.9 °C 34371.3 hPa SSE 2.1 km/h 7.6 km/h 90 % 0 mm
05:14 -19.2 °C -19.9 °C 34405.1 hPa Calm     90 % 0 mm
05:19 -19.2 °C -19.9 °C 34405.1 hPa Calm     90 % 0 mm
05:24 -19.1 °C -19.9 °C 34405.1 hPa Calm   2.9 km/h 90 % 0 mm
05:29 -19.2 °C -19.9 °C 34371.3 hPa Calm   2.9 km/h 90 % 0 mm
05:34 -19.2 °C -19.9 °C 34371.3 hPa Calm     90 % 0 mm
05:39 -19.2 °C -19.9 °C 34371.3 hPa Calm     90 % 0 mm
05:49 -19.2 °C -19.9 °C 34371.3 hPa SSW 0.5 km/h 4.2 km/h 90 % 0 mm
05:54 -19.1 °C -19.9 °C 34371.3 hPa Calm     90 % 0 mm
05:59 -19.1 °C -19.9 °C 34371.3 hPa Calm     90 % 0 mm
06:04 -19.1 °C -19.9 °C 34371.3 hPa Calm     90 % 0 mm
06:09 -19.1 °C -19.8 °C 34371.3 hPa Calm     90 % 0 mm
06:14 -19.1 °C -19.8 °C 34371.3 hPa Calm     90 % 0 mm
06:19 -19.1 °C -19.8 °C 34371.3 hPa Calm     90 % 0 mm
06:29 -19 °C -19.7 °C 34371.3 hPa Calm     91 % 0 mm
06:34 -19 °C -19.7 °C 34371.3 hPa Calm     91 % 0 mm
06:39 -19 °C -19.7 °C 34371.3 hPa Calm     91 % 0 mm
06:44 -18.9 °C -19.7 °C 34371.3 hPa Calm     91 % 0 mm
06:49 -18.9 °C -19.7 °C 34371.3 hPa Calm     91 % 0 mm
06:54 -18.9 °C -19.7 °C 34371.3 hPa Calm     91 % 0 mm
06:59 -18.9 °C -19.7 °C 34371.3 hPa Calm     91 % 0 mm
07:04 -18.9 °C -19.7 °C 34371.3 hPa Calm     91 % 0 mm
07:09 -18.9 °C -19.7 °C 34371.3 hPa Calm     91 % 0 mm
07:14 -19 °C -19.7 °C 34371.3 hPa Calm     91 % 0 mm
07:19 -19 °C -19.7 °C 34371.3 hPa Calm     91 % 0 mm
07:29 -19.1 °C -19.8 °C 34371.3 hPa Calm     91 % 0 mm
07:39 -19.1 °C -19.8 °C 34371.3 hPa Calm     91 % 0 mm
07:49 -19.1 °C -19.8 °C 34371.3 hPa Calm     91 % 0 mm
07:54 -19.1 °C -19.8 °C 34371.3 hPa Calm     91 % 0 mm
07:59 -19.1 °C -19.8 °C 34371.3 hPa Calm     91 % 0 mm
08:04 -19.1 °C -19.8 °C 34371.3 hPa Calm   6.9 km/h 91 % 0 mm
08:09 -19.1 °C -19.8 °C 34371.3 hPa South 2.3 km/h 7.6 km/h 91 % 0 mm
08:19 -18.9 °C -19.6 °C 34371.3 hPa South 1.6 km/h 5.6 km/h 92 % 0 mm
08:24 -18.9 °C -19.6 °C 34371.3 hPa WNW 0.5 km/h 5.6 km/h 92 % 0 mm
08:29 -18.9 °C -19.5 °C 34371.3 hPa WNW 0.5 km/h 4.2 km/h 92 % 0 mm
08:34 -18.8 °C -19.6 °C 34371.3 hPa WNW 0.8 km/h 4.2 km/h 91 % 0 mm
08:44 -18.8 °C -19.4 °C 34371.3 hPa South 0.5 km/h 5.1 km/h 92 % 0 mm
08:49 -18.7 °C -19.3 °C 34371.3 hPa South 0.5 km/h 5.1 km/h 92 % 0 mm
08:54 -18.7 °C -19.3 °C 34371.3 hPa Calm     92 % 0 mm
09:04 -18.6 °C -19.2 °C 34371.3 hPa Calm     92 % 0 mm
09:09 -18.5 °C -19.1 °C 34371.3 hPa Calm     92 % 0 mm
09:14 -18.4 °C -19 °C 34405.1 hPa Calm     92 % 0 mm
09:19 -18.3 °C -18.9 °C 34405.1 hPa Calm     93 % 0 mm
09:24 -18.2 °C -18.8 °C 34405.1 hPa Calm     92 % 0 mm
09:34 -18 °C -18.6 °C 34405.1 hPa SSE 2.9 km/h 6.9 km/h 93 % 0 mm
09:39 -17.9 °C -18.4 °C 34405.1 hPa SSE 1.8 km/h 6.9 km/h 93 % 0 mm
09:44 -17.8 °C -18.4 °C 34371.3 hPa SSE 0.5 km/h 4.2 km/h 93 % 0 mm
09:54 -17.7 °C -18.2 °C 34371.3 hPa SSE 0.3 km/h 3.4 km/h 93 % 0 mm
09:59 -17.6 °C -18.2 °C 34371.3 hPa Calm     93 % 0 mm
10:04 -17.6 °C -18 °C 34371.3 hPa South 0.5 km/h 5.1 km/h 94 % 0 mm
10:14 -17.4 °C -17.9 °C 34371.3 hPa ESE 0.8 km/h 6.4 km/h 94 % 0 mm
10:19 -17.4 °C -17.9 °C 34371.3 hPa ESE 0.8 km/h 6.4 km/h 94 % 0 mm
10:24 -17.3 °C -17.7 °C 34371.3 hPa SSW 1.3 km/h 9.8 km/h 94 % 0 mm
10:29 -17.2 °C -17.7 °C 34371.3 hPa SSW 4.3 km/h 9.8 km/h 94 % 0 mm
10:39 -17 °C -17.4 °C 34371.3 hPa SSW 6.3 km/h 11.1 km/h 94 % 0 mm
10:44 -16.9 °C -17.4 °C 34371.3 hPa South 7.7 km/h 11.1 km/h 94 % 0 mm
10:54 -16.8 °C -17.3 °C 34371.3 hPa South 6.4 km/h 9.3 km/h 94 % 0 mm
10:59 -16.7 °C -17.2 °C 34371.3 hPa South 6.8 km/h 10.3 km/h 94 % 0 mm
11:04 -16.6 °C -17.1 °C 34371.3 hPa South 7.2 km/h 11.1 km/h 94 % 0 mm
11:09 -16.6 °C -17.1 °C 34371.3 hPa SSW 7.6 km/h 11.1 km/h 94 % 0 mm
11:14 -16.4 °C -16.9 °C 34371.3 hPa SSW 7.7 km/h 10.3 km/h 94 % 0 mm
11:19 -16.3 °C -16.8 °C 34371.3 hPa South 7.6 km/h 10.3 km/h 94 % 0 mm
11:24 -16.3 °C -16.8 °C 34371.3 hPa South 7.2 km/h 9.8 km/h 94 % 0 mm
11:29 -16.2 °C -16.7 °C 34371.3 hPa SSW 6.9 km/h 9.8 km/h 94 % 0 mm
11:34 -16.2 °C -16.8 °C 34371.3 hPa SSW 5.6 km/h 9.3 km/h 93 % 0 mm
11:44 -16.1 °C -16.7 °C 34371.3 hPa WSW 7.6 km/h 16.3 km/h 93 % 0 mm
11:49 -16.1 °C -16.7 °C 34371.3 hPa WSW 8.9 km/h 16.3 km/h 92 % 0 mm
11:54 -16.1 °C -16.7 °C 34371.3 hPa SW 10.6 km/h 19.6 km/h 92 % 0 mm
12:04 -16 °C -16.7 °C 34337.4 hPa SW 10.6 km/h 20.9 km/h 91 % 0 mm
12:14 -15.9 °C -16.8 °C 34337.4 hPa SW 12.7 km/h 16.9 km/h 89 % 0 mm
12:24 -15.8 °C -16.8 °C 34337.4 hPa SW 9.7 km/h 22.5 km/h 88 % 0 mm
12:29 -15.8 °C -16.9 °C 34303.6 hPa SW 11.1 km/h 22.5 km/h 87 % 0 mm
12:34 -15.8 °C -16.9 °C 34303.6 hPa SW 12.2 km/h 20.3 km/h 87 % 0 mm
12:39 -15.7 °C -16.8 °C 34303.6 hPa SW 9.7 km/h 15 km/h 86 % 0 mm
12:54 -15.5 °C -17 °C 34269.7 hPa WSW 8.9 km/h 22.5 km/h 83 % 0 mm
12:59 -15.4 °C -17 °C 34269.7 hPa SW 5.5 km/h 10.3 km/h 82 % 0 mm
13:04 -15.4 °C -17.1 °C 34269.7 hPa South 5.1 km/h 11.1 km/h 81 % 0 mm
13:09 -15.3 °C -17.1 °C 34269.7 hPa SW 7.7 km/h 14 km/h 80 % 0 mm
13:14 -15.2 °C -17.1 °C 34303.6 hPa SW 7.7 km/h 14 km/h 79 % 0 mm
13:34 -15.4 °C -17.6 °C 34303.6 hPa West 6 km/h 14 km/h 75 % 0 mm
13:44 -15.5 °C -17.9 °C 34269.7 hPa WNW 9.7 km/h 22 km/h 73 % 0 mm
13:49 -15.5 °C -18.1 °C 34269.7 hPa West 8.2 km/h 15 km/h 72 % 0 mm
13:59 -15.4 °C -18.2 °C 34269.7 hPa WNW 6.9 km/h 14 km/h 70 % 0 mm
14:04 -15.4 °C -18.3 °C 34269.7 hPa WNW 6.8 km/h 15.6 km/h 69 % 0 mm
14:14 -15.3 °C -18.3 °C 34269.7 hPa ESE 3.9 km/h 7.6 km/h 68 % 0 mm
14:19 -15.2 °C -18.3 °C 34269.7 hPa ESE 4.7 km/h 10.3 km/h 67 % 0 mm
14:24 -15.1 °C -18.3 °C 34269.7 hPa ESE 4.7 km/h 11.1 km/h 66 % 0 mm
14:29 -15.1 °C -18.4 °C 34269.7 hPa SW 6 km/h 14.5 km/h 65 % 0 mm
14:35 -15.1 °C -18.5 °C 34269.7 hPa SW 8.2 km/h 14 km/h 64 % 0 mm
14:40 -15.1 °C -18.7 °C 34269.7 hPa SSW 7.2 km/h 9.8 km/h 63 % 0 mm
14:45 -15.1 °C -18.7 °C 34269.7 hPa South 6.3 km/h 9.3 km/h 63 % 0 mm
14:50 -15.1 °C -18.8 °C 34269.7 hPa South 5.6 km/h 9.3 km/h 62 % 0 mm
14:55 -15.1 °C -18.9 °C 34269.7 hPa SW 7.2 km/h 16.3 km/h 61 % 0 mm
15:00 -15.1 °C -18.9 °C 34269.7 hPa SW 9 km/h 16.3 km/h 61 % 0 mm
15:05 -15.1 °C -19.1 °C 34269.7 hPa SW 6.8 km/h 14 km/h 60 % 0 mm
15:10 -15.1 °C -19.2 °C 34269.7 hPa West 6 km/h 14 km/h 59 % 0 mm
15:15 -15.2 °C -19.3 °C 34269.7 hPa West 3.7 km/h 10.3 km/h 59 % 0 mm
15:20 -15.2 °C -19.4 °C 34269.7 hPa West 0.5 km/h 2.9 km/h 58 % 0 mm
15:25 -15.2 °C -19.4 °C 34269.7 hPa SW 0.5 km/h 6.9 km/h 58 % 0 mm
15:40 -15.4 °C -19.8 °C 34235.8 hPa SE 0.8 km/h 8.9 km/h 56 % 0 mm
15:45 -15.5 °C -19.9 °C 34235.8 hPa Calm   3.4 km/h 56 % 0 mm
15:55 -15.7 °C -20.1 °C 34235.8 hPa SSE 0.5 km/h 3.4 km/h 56 % 0 mm
16:00 -15.8 °C -20.2 °C 34235.8 hPa SW 2.1 km/h 5.6 km/h 56 % 0 mm
16:05 -15.8 °C -20.2 °C 34235.8 hPa SW 2.3 km/h 5.6 km/h 56 % 0 mm
16:10 -15.9 °C -20.2 °C 34235.8 hPa SW 0.3 km/h 2.9 km/h 57 % 0 mm
16:15 -15.9 °C -20.2 °C 34235.8 hPa Calm     57 % 0 mm
16:20 -16.1 °C -20.3 °C 34235.8 hPa Calm     57 % 0 mm
16:25 -16.1 °C -20.3 °C 34235.8 hPa Calm     57 % 0 mm
16:30 -16.1 °C -20.2 °C 34198.6 hPa Calm     58 % 0 mm
16:35 -16.2 °C -20.2 °C 34198.6 hPa Calm     59 % 0 mm
16:40 -16.2 °C -20.2 °C 34198.6 hPa Calm   5.6 km/h 59 % 0 mm
16:45 -16.3 °C -20.3 °C 34198.6 hPa NW 1.3 km/h 5.6 km/h 59 % 0 mm
16:50 -16.3 °C -20.2 °C 34198.6 hPa NW 1.6 km/h 5.6 km/h 60 % 0 mm
16:55 -16.4 °C -20.3 °C 34198.6 hPa NW 0.3 km/h 2.9 km/h 60 % 0 mm
17:00 -16.4 °C -20.3 °C 34198.6 hPa Calm     60 % 0 mm
17:05 -16.5 °C -20.2 °C 34198.6 hPa Calm     61 % 0 mm
17:10 -16.6 °C -20.4 °C 34198.6 hPa Calm     61 % 0 mm
17:15 -16.7 °C -20.3 °C 34198.6 hPa Calm   4.2 km/h 62 % 0 mm
17:20 -16.7 °C -20.3 °C 34198.6 hPa SW 0.3 km/h 4.2 km/h 62 % 0 mm
17:25 -16.8 °C -20.3 °C 34198.6 hPa SSW 0.3 km/h 2.9 km/h 63 % 0 mm
17:30 -16.9 °C -20.4 °C 34235.8 hPa Calm     63 % 0 mm
17:35 -17 °C -20.5 °C 34235.8 hPa SW 1 km/h 5.6 km/h 63 % 0 mm
17:40 -17.1 °C -20.4 °C 34235.8 hPa West 1.8 km/h 6.4 km/h 64 % 0 mm
17:45 -17.1 °C -20.4 °C 34235.8 hPa NW 1.6 km/h 6.9 km/h 64 % 0 mm
17:50 -17.2 °C -20.5 °C 34235.8 hPa NW 0.5 km/h 6.9 km/h 64 % 0 mm
17:55 -17.2 °C -20.4 °C 34235.8 hPa Calm   6.4 km/h 65 % 0 mm
18:00 -17.2 °C -20.4 °C 34235.8 hPa NW 1.3 km/h 7.6 km/h 65 % 0 mm
18:05 -17.3 °C -20.4 °C 34235.8 hPa NW 3.1 km/h 7.6 km/h 66 % 0 mm
18:10 -17.3 °C -20.4 °C 34235.8 hPa NW 2.1 km/h 6.4 km/h 66 % 0 mm
18:15 -17.4 °C -20.4 °C 34269.7 hPa WNW 0.3 km/h 2.3 km/h 67 % 0 mm
18:20 -17.4 °C -20.4 °C 34269.7 hPa Calm     67 % 0 mm
18:25 -17.4 °C -20.4 °C 34269.7 hPa Calm     67 % 0 mm
18:30 -17.4 °C -20.3 °C 34269.7 hPa Calm   4.2 km/h 68 % 0 mm
18:35 -17.4 °C -20.3 °C 34269.7 hPa WNW 0.3 km/h 4.2 km/h 68 % 0 mm
18:40 -17.4 °C -20.2 °C 34269.7 hPa WNW 0.3 km/h 4.2 km/h 69 % 0 mm
18:45 -17.5 °C -20.3 °C 34269.7 hPa Calm     69 % 0 mm
18:50 -17.5 °C -20.3 °C 34269.7 hPa Calm   3.4 km/h 69 % 0 mm
18:55 -17.5 °C -20.2 °C 34269.7 hPa Calm   3.4 km/h 70 % 0 mm
19:00 -17.5 °C -20.2 °C 34269.7 hPa Calm     70 % 0 mm
19:05 -17.5 °C -20.1 °C 34269.7 hPa WNW 0.8 km/h 6.4 km/h 71 % 0 mm
19:10 -17.5 °C -20.1 °C 34269.7 hPa WNW 1.3 km/h 6.4 km/h 71 % 0 mm
19:15 -17.5 °C -20.1 °C 34269.7 hPa WNW 0.5 km/h 3.4 km/h 71 % 0 mm
19:20 -17.6 °C -20.2 °C 34269.7 hPa WNW 0.5 km/h 4.2 km/h 71 % 0 mm
19:25 -17.6 °C -20.1 °C 34269.7 hPa WNW 2.1 km/h 6.9 km/h 72 % 0 mm
19:30 -17.6 °C -20.1 °C 34269.7 hPa West 3.7 km/h 7.6 km/h 72 % 0 mm
19:35 -17.6 °C -20.1 °C 34269.7 hPa WSW 2.1 km/h 7.6 km/h 72 % 0 mm
19:40 -17.7 °C -20.2 °C 34269.7 hPa Calm     72 % 0 mm
19:45 -17.7 °C -20.1 °C 34269.7 hPa Calm     73 % 0 mm
19:50 -17.7 °C -20.1 °C 34269.7 hPa NNW 0.8 km/h 5.1 km/h 73 % 0 mm
19:55 -17.7 °C -20.1 °C 34269.7 hPa NNW 0.8 km/h 5.1 km/h 73 % 0 mm
20:00 -17.7 °C -20.1 °C 34269.7 hPa Calm     73 % 0 mm
20:05 -17.7 °C -20 °C 34269.7 hPa Calm     74 % 0 mm
20:10 -17.7 °C -20 °C 34269.7 hPa NNW 1.6 km/h 5.6 km/h 74 % 0 mm
20:15 -17.7 °C -20 °C 34269.7 hPa NNW 3.4 km/h 5.6 km/h 74 % 0 mm
20:20 -17.7 °C -19.9 °C 34269.7 hPa NNW 2.1 km/h 5.6 km/h 75 % 0 mm
20:26 -17.7 °C -19.9 °C 34269.7 hPa Calm     75 % 0 mm
20:31 -17.7 °C -19.9 °C 34269.7 hPa NNW 0.3 km/h 3.4 km/h 75 % 0 mm
20:36 -17.7 °C -19.9 °C 34269.7 hPa NNW 0.5 km/h 4.2 km/h 75 % 0 mm
20:41 -17.7 °C -19.8 °C 34269.7 hPa NNW 0.5 km/h 4.2 km/h 75 % 0 mm
20:46 -17.7 °C -19.8 °C 34269.7 hPa Calm     76 % 0 mm
20:51 -17.6 °C -19.7 °C 34269.7 hPa SE 0.3 km/h 5.6 km/h 76 % 0 mm
20:56 -17.6 °C -19.7 °C 34303.6 hPa SE 0.5 km/h 5.6 km/h 76 % 0 mm
21:01 -17.6 °C -19.6 °C 34303.6 hPa SSW 0.8 km/h 4.2 km/h 76 % 0 mm
21:06 -17.6 °C -19.6 °C 34303.6 hPa SSW 0.8 km/h 4.2 km/h 77 % 0 mm
21:11 -17.6 °C -19.6 °C 34269.7 hPa NW 0.8 km/h 4.2 km/h 77 % 0 mm
21:16 -17.6 °C -19.6 °C 34269.7 hPa NW 1.3 km/h 5.6 km/h 77 % 0 mm
21:21 -17.6 °C -19.6 °C 34269.7 hPa NW 1.6 km/h 5.6 km/h 77 % 0 mm
21:26 -17.6 °C -19.6 °C 34269.7 hPa NW 0.8 km/h 4.2 km/h 77 % 0 mm
21:31 -17.6 °C -19.6 °C 34269.7 hPa Calm     77 % 0 mm
21:36 -17.6 °C -19.6 °C 34269.7 hPa Calm     77 % 0 mm
21:41 -17.6 °C -19.4 °C 34269.7 hPa Calm     78 % 0 mm
21:46 -17.6 °C -19.4 °C 34269.7 hPa Calm     78 % 0 mm
21:51 -17.6 °C -19.4 °C 34269.7 hPa Calm     78 % 0 mm
21:56 -17.6 °C -19.4 °C 34269.7 hPa Calm     78 % 0 mm
22:01 -17.6 °C -19.4 °C 34269.7 hPa WNW 0.3 km/h 5.6 km/h 78 % 0 mm
22:06 -17.6 °C -19.4 °C 34269.7 hPa WNW 0.8 km/h 5.6 km/h 78 % 0 mm
22:11 -17.6 °C -19.4 °C 34269.7 hPa WNW 0.5 km/h 2.9 km/h 78 % 0 mm
22:16 -17.6 °C -19.4 °C 34269.7 hPa Calm     78 % 0 mm
22:21 -17.6 °C -19.3 °C 34269.7 hPa Calm     79 % 0 mm
22:26 -17.6 °C -19.3 °C 34269.7 hPa Calm     79 % 0 mm
22:31 -17.6 °C -19.3 °C 34269.7 hPa Calm     79 % 0 mm
22:36 -17.6 °C -19.3 °C 34269.7 hPa Calm     79 % 0 mm
22:41 -17.5 °C -19.3 °C 34269.7 hPa Calm     79 % 0 mm
22:46 -17.5 °C -19.3 °C 34269.7 hPa WNW 0.3 km/h 5.6 km/h 79 % 0 mm
22:51 -17.5 °C -19.3 °C 34269.7 hPa WNW 0.8 km/h 5.6 km/h 79 % 0 mm
22:56 -17.5 °C -19.3 °C 34303.6 hPa WSW 1.3 km/h 6.4 km/h 79 % 0 mm
23:01 -17.5 °C -19.3 °C 34303.6 hPa SW 3.1 km/h 6.4 km/h 79 % 0 mm
23:06 -17.5 °C -19.2 °C 34303.6 hPa SW 3.1 km/h 6.4 km/h 80 % 0 mm
23:11 -17.5 °C -19.2 °C 34303.6 hPa NNW 0.5 km/h 5.1 km/h 80 % 0 mm
23:16 -17.5 °C -19.2 °C 34303.6 hPa Calm     80 % 0 mm
23:21 -17.5 °C -19.2 °C 34303.6 hPa Calm     80 % 0 mm
23:26 -17.5 °C -19.2 °C 34303.6 hPa Calm     80 % 0 mm
23:31 -17.5 °C -19.2 °C 34303.6 hPa Calm     80 % 0 mm
23:36 -17.5 °C -19.2 °C 34303.6 hPa Calm     80 % 0 mm
23:41 -17.5 °C -19.2 °C 34303.6 hPa Calm     80 % 0 mm
23:46 -17.5 °C -19.2 °C 34303.6 hPa Calm     80 % 0 mm
23:51 -17.5 °C -19.1 °C 34303.6 hPa Calm     81 % 0 mm
23:56 -17.5 °C -19.1 °C 34303.6 hPa Calm     81 % 0 mm
Vremenska postaja Senovo
Podatki zbrani iz Weather Underground - 2.75 mb

Script developed by  Jim McMurry - jmcmurry@mwt.net Adapted for the template by  Wim van der Kuil - Leuven-Template.eu

Vremenski podatki so objavljeni na:

European Weather Network

WeatherCloud

Weather Underground

AWEKAS

HAMweather, WeatherForYou, PWS Weather

MapView

Geostik

Slovenia weather network

Oprema, ki se uporablja:

Vremenski program
Cumulus

Vremenski server
Asus

Cumulus

Asus